NORTHEAST SUFFOLK  -  Freeze Watch Freeze Watch        NORTHWEST SUFFOLK  -  Freeze Watch Freeze Watch        SOUTHEAST SUFFOLK  -  Freeze Watch Freeze Watch        SOUTHWEST SUFFOLK  -  Freeze Watch Freeze Watch      

Active alerts

Northwest Suffolk
  Details for Northwest Suffolk Freeze Watch
Southwest Suffolk
  Details for Southwest Suffolk Freeze Watch
Northeast Suffolk
  Details for Northeast Suffolk Freeze Watch
Southeast Suffolk
  Details for Southeast Suffolk Freeze Watch


WXM80 ListenWXM80 Stop

You find our weather info also at:

UK Metoffice

WeatherCloud

Weather Underground

Northeastern Weather Network

AWEKAS

Citizen Weather Observer Program (CWOP)

HAMweather, WeatherForYou, PWS Weather


Weather Underground History page Text

Daily Summary for September 5, 2017 Units:  Both    English   Metric
« Previous Day
Next Day »
Daily Weekly Monthly Yearly Custom
  High: Low: Average:
Temperature: 86.1 °F /  30.1 °C 69.0 °F /  20.6 °C 75.5 °F /  24.2 °C
Dew Point: 73.7 °F /  23.2 °C 64.6 °F /  18.1 °C 69.2 °F /  20.7 °C
Humidity: 93 % 63 % 82 %
Wind Speed: 7.0 mph /  11.3 km/h - 1.7 mph /  2.7 km/h
Wind Gust: 18.0 mph /  29 km/h - -
Wind:- - SSW
Pressure: 29.80 in /  1009 hPa 29.67 in /  1004.6 hPa -
Precipitation: 0.00 in /  0 mm    
Historical Graphs
 
 
Tabular Data for September 5, 2017
Time Temperature Dew Point Pressure Wind Wind Speed Wind Gust Humidity Rainfall Rate (Hourly)
00:00 69.0 °F /  20.6 °C 64.6 °F /  18.1 °C 29.80 in /  1009 hPa SSE 0.4 mph /  0.6 km/h 3.5 mph /  5.6 km/h 86 % 0.00 in /  0 mm
00:05 69.0 °F /  20.6 °C 64.6 °F /  18.1 °C 29.79 in /  1008.7 hPa South 1.2 mph /  1.9 km/h 3.5 mph /  5.6 km/h 86 % 0.00 in /  0 mm
00:10 69.0 °F /  20.6 °C 64.6 °F /  18.1 °C 29.79 in /  1008.7 hPa SW 1.7 mph /  2.7 km/h 3.5 mph /  5.6 km/h 86 % 0.00 in /  0 mm
00:15 69.0 °F /  20.6 °C 64.6 °F /  18.1 °C 29.79 in /  1008.7 hPa South 0.3 mph /  0.5 km/h 2.3 mph /  3.7 km/h 86 % 0.00 in /  0 mm
00:20 69.0 °F /  20.6 °C 64.6 °F /  18.1 °C 29.79 in /  1008.7 hPa SSE 0.4 mph /  0.6 km/h 1.2 mph /  1.9 km/h 86 % 0.00 in /  0 mm
00:25 69.1 °F /  20.6 °C 64.7 °F /  18.2 °C 29.79 in /  1008.7 hPa South 0.4 mph /  0.6 km/h 3.5 mph /  5.6 km/h 86 % 0.00 in /  0 mm
00:30 69.1 °F /  20.6 °C 64.7 °F /  18.2 °C 29.79 in /  1008.7 hPa SE 1.5 mph /  2.4 km/h 3.5 mph /  5.6 km/h 86 % 0.00 in /  0 mm
00:35 69.1 °F /  20.6 °C 65.1 °F /  18.4 °C 29.79 in /  1008.7 hPa South 1.4 mph /  2.3 km/h 3.5 mph /  5.6 km/h 87 % 0.00 in /  0 mm
00:40 69.1 °F /  20.6 °C 65.1 °F /  18.4 °C 29.79 in /  1008.7 hPa South 0.9 mph /  1.4 km/h 3.5 mph /  5.6 km/h 87 % 0.00 in /  0 mm
00:45 69.2 °F /  20.7 °C 65.2 °F /  18.4 °C 29.79 in /  1008.7 hPa South 2.2 mph /  3.5 km/h 3.0 mph /  4.8 km/h 87 % 0.00 in /  0 mm
00:50 69.2 °F /  20.7 °C 65.2 °F /  18.4 °C 29.79 in /  1008.7 hPa SSE 1.0 mph /  1.6 km/h 3.0 mph /  4.8 km/h 87 % 0.00 in /  0 mm
00:55 69.3 °F /  20.7 °C 65.3 °F /  18.5 °C 29.79 in /  1008.7 hPa SSE 1.1 mph /  1.8 km/h 3.5 mph /  5.6 km/h 87 % 0.00 in /  0 mm
01:00 69.3 °F /  20.7 °C 65.3 °F /  18.5 °C 29.79 in /  1008.7 hPa SSW 1.4 mph /  2.3 km/h 4.6 mph /  7.4 km/h 87 % 0.00 in /  0 mm
01:06 69.3 °F /  20.7 °C 65.3 °F /  18.5 °C 29.79 in /  1008.7 hPa SSW 1.0 mph /  1.6 km/h 5.0 mph /  8 km/h 87 % 0.00 in /  0 mm
01:11 69.3 °F /  20.7 °C 65.3 °F /  18.5 °C 29.79 in /  1008.7 hPa SSW 1.0 mph /  1.6 km/h 4.0 mph /  6.4 km/h 87 % 0.00 in /  0 mm
01:16 69.3 °F /  20.7 °C 65.3 °F /  18.5 °C 29.78 in /  1008.4 hPa South 1.0 mph /  1.6 km/h 4.0 mph /  6.4 km/h 87 % 0.00 in /  0 mm
01:21 69.3 °F /  20.7 °C 65.3 °F /  18.5 °C 29.78 in /  1008.4 hPa SSW 1.4 mph /  2.3 km/h 3.5 mph /  5.6 km/h 87 % 0.00 in /  0 mm
01:26 69.3 °F /  20.7 °C 65.3 °F /  18.5 °C 29.78 in /  1008.4 hPa SSW 1.0 mph /  1.6 km/h 7.0 mph /  11.3 km/h 87 % 0.00 in /  0 mm
01:31 69.3 °F /  20.7 °C 65.3 °F /  18.5 °C 29.78 in /  1008.4 hPa SSW 1.0 mph /  1.6 km/h 5.0 mph /  8 km/h 87 % 0.00 in /  0 mm
01:35 69.3 °F /  20.7 °C 65.3 °F /  18.5 °C 29.78 in /  1008.4 hPa SSW 2.7 mph /  4.3 km/h 3.5 mph /  5.6 km/h 87 % 0.00 in /  0 mm
01:41 69.4 °F /  20.8 °C 65.4 °F /  18.6 °C 29.78 in /  1008.4 hPa SSW 1.0 mph /  1.6 km/h 4.0 mph /  6.4 km/h 87 % 0.00 in /  0 mm
01:46 69.4 °F /  20.8 °C 65.7 °F /  18.7 °C 29.77 in /  1008 hPa South 1.0 mph /  1.6 km/h 5.8 mph /  9.3 km/h 88 % 0.00 in /  0 mm
01:51 69.5 °F /  20.8 °C 65.8 °F /  18.8 °C 29.77 in /  1008 hPa South 1.0 mph /  1.6 km/h 5.0 mph /  8 km/h 88 % 0.00 in /  0 mm
01:56 69.6 °F /  20.9 °C 65.9 °F /  18.8 °C 29.77 in /  1008 hPa South 1.0 mph /  1.6 km/h 4.0 mph /  6.4 km/h 88 % 0.00 in /  0 mm
02:01 69.7 °F /  20.9 °C 66.0 °F /  18.9 °C 29.77 in /  1008 hPa SSW 0.4 mph /  0.6 km/h 3.5 mph /  5.6 km/h 88 % 0.00 in /  0 mm
02:06 69.7 °F /  20.9 °C 66.3 °F /  19.1 °C 29.77 in /  1008 hPa SSW 2.0 mph /  3.2 km/h 5.0 mph /  8 km/h 89 % 0.00 in /  0 mm
02:11 69.7 °F /  20.9 °C 66.3 °F /  19.1 °C 29.78 in /  1008.4 hPa South 1.0 mph /  1.6 km/h 5.0 mph /  8 km/h 89 % 0.00 in /  0 mm
02:14 69.7 °F /  20.9 °C 66.3 °F /  19.1 °C 29.78 in /  1008.4 hPa SSW 1.5 mph /  2.4 km/h 5.8 mph /  9.3 km/h 89 % 0.00 in /  0 mm
02:19 69.7 °F /  20.9 °C 66.6 °F /  19.2 °C 29.78 in /  1008.4 hPa SSE 2.8 mph /  4.5 km/h 6.0 mph /  9.7 km/h 90 % 0.00 in /  0 mm
02:24 69.8 °F /  21 °C 66.7 °F /  19.3 °C 29.77 in /  1008 hPa South 2.3 mph /  3.7 km/h 3.5 mph /  5.6 km/h 90 % 0.00 in /  0 mm
02:29 69.8 °F /  21 °C 66.7 °F /  19.3 °C 29.77 in /  1008 hPa SSW 0.9 mph /  1.4 km/h 3.5 mph /  5.6 km/h 90 % 0.00 in /  0 mm
02:35 69.9 °F /  21.1 °C 66.8 °F /  19.3 °C 29.77 in /  1008 hPa ESE 1.8 mph /  2.9 km/h 3.5 mph /  5.6 km/h 90 % 0.00 in /  0 mm
02:40 69.9 °F /  21.1 °C 66.8 °F /  19.3 °C 29.77 in /  1008 hPa ESE 1.3 mph /  2.1 km/h 3.5 mph /  5.6 km/h 90 % 0.00 in /  0 mm
02:45 70.0 °F /  21.1 °C 67.3 °F /  19.6 °C 29.77 in /  1008 hPa SSE 3.0 mph /  4.8 km/h 11.5 mph /  18.5 km/h 91 % 0.00 in /  0 mm
02:50 70.0 °F /  21.1 °C 66.9 °F /  19.4 °C 29.77 in /  1008 hPa South 1.5 mph /  2.4 km/h 3.5 mph /  5.6 km/h 90 % 0.00 in /  0 mm
02:55 70.0 °F /  21.1 °C 67.3 °F /  19.6 °C 29.76 in /  1007.7 hPa South 1.2 mph /  1.9 km/h 3.5 mph /  5.6 km/h 91 % 0.00 in /  0 mm
03:00 70.1 °F /  21.2 °C 67.3 °F /  19.6 °C 29.76 in /  1007.7 hPa SW 3.8 mph /  6.1 km/h 11.5 mph /  18.5 km/h 91 % 0.00 in /  0 mm
03:05 70.1 °F /  21.2 °C 67.3 °F /  19.6 °C 29.76 in /  1007.7 hPa South 0.3 mph /  0.5 km/h 2.3 mph /  3.7 km/h 91 % 0.00 in /  0 mm
03:10 70.1 °F /  21.2 °C 67.3 °F /  19.6 °C 29.76 in /  1007.7 hPa SSE 2.4 mph /  3.9 km/h 4.0 mph /  6.4 km/h 91 % 0.00 in /  0 mm
03:15 70.1 °F /  21.2 °C 67.3 °F /  19.6 °C 29.76 in /  1007.7 hPa NW 3.0 mph /  4.8 km/h 4.6 mph /  7.4 km/h 91 % 0.00 in /  0 mm
03:20 70.2 °F /  21.2 °C 67.4 °F /  19.7 °C 29.76 in /  1007.7 hPa SSW 2.8 mph /  4.5 km/h 9.2 mph /  14.8 km/h 91 % 0.00 in /  0 mm
03:25 70.2 °F /  21.2 °C 67.4 °F /  19.7 °C 29.76 in /  1007.7 hPa SSW 1.7 mph /  2.7 km/h 3.5 mph /  5.6 km/h 91 % 0.00 in /  0 mm
03:30 70.2 °F /  21.2 °C 67.4 °F /  19.7 °C 29.76 in /  1007.7 hPa SSW 1.6 mph /  2.6 km/h 3.5 mph /  5.6 km/h 91 % 0.00 in /  0 mm
03:35 70.2 °F /  21.2 °C 67.4 °F /  19.7 °C 29.76 in /  1007.7 hPa SSW 2.8 mph /  4.5 km/h 5.8 mph /  9.3 km/h 91 % 0.00 in /  0 mm
03:36 70.2 °F /  21.2 °C 67.4 °F /  19.7 °C 29.76 in /  1007.7 hPa SSW 2.5 mph /  4 km/h 6.9 mph /  11.1 km/h 91 % 0.00 in /  0 mm
03:41 70.2 °F /  21.2 °C 67.4 °F /  19.7 °C 29.76 in /  1007.7 hPa SSW 2.9 mph /  4.7 km/h 10.4 mph /  16.7 km/h 91 % 0.00 in /  0 mm
03:46 70.2 °F /  21.2 °C 67.8 °F /  19.9 °C 29.76 in /  1007.7 hPa SSW 1.9 mph /  3.1 km/h 6.9 mph /  11.1 km/h 92 % 0.00 in /  0 mm
03:51 70.3 °F /  21.3 °C 67.9 °F /  19.9 °C 29.76 in /  1007.7 hPa SSW 0.9 mph /  1.4 km/h 4.0 mph /  6.4 km/h 92 % 0.00 in /  0 mm
03:56 70.2 °F /  21.2 °C 67.8 °F /  19.9 °C 29.76 in /  1007.7 hPa WSW 1.8 mph /  2.9 km/h 4.6 mph /  7.4 km/h 92 % 0.00 in /  0 mm
04:01 70.3 °F /  21.3 °C 67.9 °F /  19.9 °C 29.76 in /  1007.7 hPa SSW 2.3 mph /  3.7 km/h 5.8 mph /  9.3 km/h 92 % 0.00 in /  0 mm
04:06 70.2 °F /  21.2 °C 67.8 °F /  19.9 °C 29.76 in /  1007.7 hPa SW 1.7 mph /  2.7 km/h 3.5 mph /  5.6 km/h 92 % 0.00 in /  0 mm
04:11 70.2 °F /  21.2 °C 67.8 °F /  19.9 °C 29.75 in /  1007.3 hPa SW 2.4 mph /  3.9 km/h 4.6 mph /  7.4 km/h 92 % 0.00 in /  0 mm
04:16 70.2 °F /  21.2 °C 67.8 °F /  19.9 °C 29.75 in /  1007.3 hPa SSW 2.5 mph /  4 km/h 4.0 mph /  6.4 km/h 92 % 0.00 in /  0 mm
04:21 70.2 °F /  21.2 °C 67.8 °F /  19.9 °C 29.76 in /  1007.7 hPa SSW 1.2 mph /  1.9 km/h 3.5 mph /  5.6 km/h 92 % 0.00 in /  0 mm
04:26 70.2 °F /  21.2 °C 67.8 °F /  19.9 °C 29.75 in /  1007.3 hPa NNE 3.7 mph /  6 km/h 6.9 mph /  11.1 km/h 92 % 0.00 in /  0 mm
04:31 70.2 °F /  21.2 °C 67.8 °F /  19.9 °C 29.75 in /  1007.3 hPa SSW 2.1 mph /  3.4 km/h 3.5 mph /  5.6 km/h 92 % 0.00 in /  0 mm
04:36 70.3 °F /  21.3 °C 67.9 °F /  19.9 °C 29.75 in /  1007.3 hPa SSW 2.6 mph /  4.2 km/h 3.5 mph /  5.6 km/h 92 % 0.00 in /  0 mm
04:41 70.3 °F /  21.3 °C 67.9 °F /  19.9 °C 29.75 in /  1007.3 hPa SSW 3.1 mph /  5 km/h 3.5 mph /  5.6 km/h 92 % 0.00 in /  0 mm
04:46 70.3 °F /  21.3 °C 67.9 °F /  19.9 °C 29.75 in /  1007.3 hPa SSW 1.8 mph /  2.9 km/h 5.0 mph /  8 km/h 92 % 0.00 in /  0 mm
04:51 70.3 °F /  21.3 °C 67.9 °F /  19.9 °C 29.75 in /  1007.3 hPa SSW 2.1 mph /  3.4 km/h 3.5 mph /  5.6 km/h 92 % 0.00 in /  0 mm
04:56 70.3 °F /  21.3 °C 67.9 °F /  19.9 °C 29.75 in /  1007.3 hPa SSW 3.2 mph /  5.1 km/h 6.9 mph /  11.1 km/h 92 % 0.00 in /  0 mm
05:01 70.3 °F /  21.3 °C 67.9 °F /  19.9 °C 29.75 in /  1007.3 hPa SW 4.9 mph /  7.9 km/h 9.2 mph /  14.8 km/h 92 % 0.00 in /  0 mm
05:06 70.3 °F /  21.3 °C 67.9 °F /  19.9 °C 29.75 in /  1007.3 hPa South 3.1 mph /  5 km/h 6.9 mph /  11.1 km/h 92 % 0.00 in /  0 mm
05:11 70.3 °F /  21.3 °C 67.9 °F /  19.9 °C 29.75 in /  1007.3 hPa SW 2.3 mph /  3.7 km/h 4.6 mph /  7.4 km/h 92 % 0.00 in /  0 mm
05:16 70.2 °F /  21.2 °C 67.8 °F /  19.9 °C 29.75 in /  1007.3 hPa SSW 1.0 mph /  1.6 km/h 3.5 mph /  5.6 km/h 92 % 0.00 in /  0 mm
05:21 70.2 °F /  21.2 °C 67.8 °F /  19.9 °C 29.75 in /  1007.3 hPa West 1.2 mph /  1.9 km/h 3.5 mph /  5.6 km/h 92 % 0.00 in /  0 mm
05:26 70.1 °F /  21.2 °C 67.7 °F /  19.8 °C 29.76 in /  1007.7 hPa Calm   3.5 mph /  5.6 km/h 92 % 0.00 in /  0 mm
05:30 70.1 °F /  21.2 °C 67.7 °F /  19.8 °C 29.76 in /  1007.7 hPa WSW 1.8 mph /  2.9 km/h 5.8 mph /  9.3 km/h 92 % 0.00 in /  0 mm
05:35 70.1 °F /  21.2 °C 67.7 °F /  19.8 °C 29.76 in /  1007.7 hPa WSW 0.9 mph /  1.4 km/h 3.5 mph /  5.6 km/h 92 % 0.00 in /  0 mm
05:40 70.0 °F /  21.1 °C 67.6 °F /  19.8 °C 29.76 in /  1007.7 hPa WSW 0.1 mph /  0.2 km/h 1.2 mph /  1.9 km/h 92 % 0.00 in /  0 mm
05:45 70.0 °F /  21.1 °C 67.6 °F /  19.8 °C 29.76 in /  1007.7 hPa WSW 3.6 mph /  5.8 km/h 6.9 mph /  11.1 km/h 92 % 0.00 in /  0 mm
05:50 70.0 °F /  21.1 °C 67.6 °F /  19.8 °C 29.76 in /  1007.7 hPa WSW 1.1 mph /  1.8 km/h 2.3 mph /  3.7 km/h 92 % 0.00 in /  0 mm
05:55 69.9 °F /  21.1 °C 67.5 °F /  19.7 °C 29.76 in /  1007.7 hPa Calm   4.6 mph /  7.4 km/h 92 % 0.00 in /  0 mm
06:00 69.9 °F /  21.1 °C 67.5 °F /  19.7 °C 29.76 in /  1007.7 hPa SW 1.4 mph /  2.3 km/h 2.3 mph /  3.7 km/h 92 % 0.00 in /  0 mm
06:05 69.9 °F /  21.1 °C 67.5 °F /  19.7 °C 29.77 in /  1008 hPa SW 2.1 mph /  3.4 km/h 3.5 mph /  5.6 km/h 92 % 0.00 in /  0 mm
06:10 69.8 °F /  21 °C 67.4 °F /  19.7 °C 29.76 in /  1007.7 hPa WSW 0.5 mph /  0.8 km/h 3.5 mph /  5.6 km/h 92 % 0.00 in /  0 mm
06:15 69.8 °F /  21 °C 67.4 °F /  19.7 °C 29.76 in /  1007.7 hPa Calm   2.0 mph /  3.2 km/h 92 % 0.00 in /  0 mm
06:20 69.7 °F /  20.9 °C 67.3 °F /  19.6 °C 29.76 in /  1007.7 hPa SW 1.0 mph /  1.6 km/h 3.0 mph /  4.8 km/h 92 % 0.00 in /  0 mm
06:26 69.7 °F /  20.9 °C 67.3 °F /  19.6 °C 29.77 in /  1008 hPa SW 1.0 mph /  1.6 km/h 4.0 mph /  6.4 km/h 92 % 0.00 in /  0 mm
06:31 69.6 °F /  20.9 °C 67.2 °F /  19.6 °C 29.77 in /  1008 hPa SW 1.0 mph /  1.6 km/h 4.0 mph /  6.4 km/h 92 % 0.00 in /  0 mm
06:35 69.6 °F /  20.9 °C 67.2 °F /  19.6 °C 29.77 in /  1008 hPa Calm   4.0 mph /  6.4 km/h 92 % 0.00 in /  0 mm
06:40 69.6 °F /  20.9 °C 67.5 °F /  19.7 °C 29.77 in /  1008 hPa Calm   1.0 mph /  1.6 km/h 93 % 0.00 in /  0 mm
06:45 69.6 °F /  20.9 °C 67.5 °F /  19.7 °C 29.77 in /  1008 hPa Calm   3.0 mph /  4.8 km/h 93 % 0.00 in /  0 mm
06:50 69.6 °F /  20.9 °C 67.5 °F /  19.7 °C 29.77 in /  1008 hPa Calm   2.0 mph /  3.2 km/h 93 % 0.00 in /  0 mm
06:55 69.6 °F /  20.9 °C 67.5 °F /  19.7 °C 29.76 in /  1007.7 hPa SW 0.4 mph /  0.6 km/h 2.3 mph /  3.7 km/h 93 % 0.00 in /  0 mm
07:00 69.6 °F /  20.9 °C 67.5 °F /  19.7 °C 29.76 in /  1007.7 hPa SW 0.8 mph /  1.3 km/h 3.5 mph /  5.6 km/h 93 % 0.00 in /  0 mm
07:05 69.6 °F /  20.9 °C 67.5 °F /  19.7 °C 29.76 in /  1007.7 hPa SW 1.0 mph /  1.6 km/h 4.0 mph /  6.4 km/h 93 % 0.00 in /  0 mm
07:11 69.7 °F /  20.9 °C 67.6 °F /  19.8 °C 29.76 in /  1007.7 hPa SW 2.0 mph /  3.2 km/h 6.0 mph /  9.7 km/h 93 % 0.00 in /  0 mm
07:16 69.7 °F /  20.9 °C 67.6 °F /  19.8 °C 29.76 in /  1007.7 hPa SW 1.0 mph /  1.6 km/h 8.0 mph /  12.9 km/h 93 % 0.00 in /  0 mm
07:21 69.7 °F /  20.9 °C 67.6 °F /  19.8 °C 29.76 in /  1007.7 hPa SW 2.0 mph /  3.2 km/h 4.0 mph /  6.4 km/h 93 % 0.00 in /  0 mm
07:26 69.8 °F /  21 °C 67.4 °F /  19.7 °C 29.76 in /  1007.7 hPa SW 2.0 mph /  3.2 km/h 4.0 mph /  6.4 km/h 92 % 0.00 in /  0 mm
07:30 69.8 °F /  21 °C 67.4 °F /  19.7 °C 29.76 in /  1007.7 hPa SW 2.0 mph /  3.2 km/h 7.0 mph /  11.3 km/h 92 % 0.00 in /  0 mm
07:35 69.9 °F /  21.1 °C 67.5 °F /  19.7 °C 29.76 in /  1007.7 hPa SW 2.0 mph /  3.2 km/h 4.0 mph /  6.4 km/h 92 % 0.00 in /  0 mm
07:41 70.0 °F /  21.1 °C 67.6 °F /  19.8 °C 29.76 in /  1007.7 hPa SW 2.0 mph /  3.2 km/h 7.0 mph /  11.3 km/h 92 % 0.00 in /  0 mm
07:46 70.1 °F /  21.2 °C 67.7 °F /  19.8 °C 29.76 in /  1007.7 hPa SW 1.7 mph /  2.7 km/h 2.3 mph /  3.7 km/h 92 % 0.00 in /  0 mm
07:51 70.3 °F /  21.3 °C 67.9 °F /  19.9 °C 29.76 in /  1007.7 hPa SW 3.0 mph /  4.8 km/h 6.0 mph /  9.7 km/h 92 % 0.00 in /  0 mm
07:56 70.4 °F /  21.3 °C 68.0 °F /  20 °C 29.76 in /  1007.7 hPa SSW 1.0 mph /  1.6 km/h 6.0 mph /  9.7 km/h 92 % 0.00 in /  0 mm
08:01 70.6 °F /  21.4 °C 68.2 °F /  20.1 °C 29.77 in /  1008 hPa SSE 0.5 mph /  0.8 km/h 3.5 mph /  5.6 km/h 92 % 0.00 in /  0 mm
08:06 70.8 °F /  21.6 °C 68.0 °F /  20 °C 29.76 in /  1007.7 hPa SW 3.1 mph /  5 km/h 6.9 mph /  11.1 km/h 91 % 0.00 in /  0 mm
08:11 71.0 °F /  21.7 °C 68.2 °F /  20.1 °C 29.76 in /  1007.7 hPa SSW 4.8 mph /  7.7 km/h 8.1 mph /  13 km/h 91 % 0.00 in /  0 mm
08:16 71.3 °F /  21.8 °C 68.2 °F /  20.1 °C 29.76 in /  1007.7 hPa SW 4.7 mph /  7.6 km/h 6.0 mph /  9.7 km/h 90 % 0.00 in /  0 mm
08:21 71.5 °F /  21.9 °C 68.4 °F /  20.2 °C 29.76 in /  1007.7 hPa SW 3.8 mph /  6.1 km/h 6.9 mph /  11.1 km/h 90 % 0.00 in /  0 mm
08:26 71.7 °F /  22.1 °C 68.3 °F /  20.2 °C 29.76 in /  1007.7 hPa SSW 3.0 mph /  4.8 km/h 6.0 mph /  9.7 km/h 89 % 0.00 in /  0 mm
08:31 71.9 °F /  22.2 °C 68.2 °F /  20.1 °C 29.76 in /  1007.7 hPa SW 1.7 mph /  2.7 km/h 4.6 mph /  7.4 km/h 88 % 0.00 in /  0 mm
08:36 72.2 °F /  22.3 °C 68.4 °F /  20.2 °C 29.76 in /  1007.7 hPa WSW 1.6 mph /  2.6 km/h 6.0 mph /  9.7 km/h 88 % 0.00 in /  0 mm
08:41 72.4 °F /  22.4 °C 68.6 °F /  20.3 °C 29.76 in /  1007.7 hPa SW 2.5 mph /  4 km/h 3.5 mph /  5.6 km/h 88 % 0.00 in /  0 mm
08:46 72.7 °F /  22.6 °C 68.9 °F /  20.5 °C 29.76 in /  1007.7 hPa SSW 1.9 mph /  3.1 km/h 3.5 mph /  5.6 km/h 88 % 0.00 in /  0 mm
08:52 72.9 °F /  22.7 °C 68.8 °F /  20.4 °C 29.76 in /  1007.7 hPa WSW 1.4 mph /  2.3 km/h 5.8 mph /  9.3 km/h 87 % 0.00 in /  0 mm
08:57 73.2 °F /  22.9 °C 69.1 °F /  20.6 °C 29.76 in /  1007.7 hPa WSW 0.5 mph /  0.8 km/h 4.6 mph /  7.4 km/h 87 % 0.00 in /  0 mm
09:02 73.4 °F /  23 °C 69.3 °F /  20.7 °C 29.76 in /  1007.7 hPa SW 0.1 mph /  0.2 km/h 3.5 mph /  5.6 km/h 87 % 0.00 in /  0 mm
09:07 73.7 °F /  23.2 °C 69.2 °F /  20.7 °C 29.76 in /  1007.7 hPa SW 3.0 mph /  4.8 km/h 3.5 mph /  5.6 km/h 86 % 0.00 in /  0 mm
09:12 73.9 °F /  23.3 °C 69.1 °F /  20.6 °C 29.76 in /  1007.7 hPa SW 1.4 mph /  2.3 km/h 3.5 mph /  5.6 km/h 85 % 0.00 in /  0 mm
09:17 74.1 °F /  23.4 °C 69.6 °F /  20.9 °C 29.76 in /  1007.7 hPa WSW 0.4 mph /  0.6 km/h 3.5 mph /  5.6 km/h 86 % 0.00 in /  0 mm
09:22 74.3 °F /  23.5 °C 69.5 °F /  20.8 °C 29.76 in /  1007.7 hPa SW 1.0 mph /  1.6 km/h 3.5 mph /  5.6 km/h 85 % 0.00 in /  0 mm
09:27 74.6 °F /  23.7 °C 69.4 °F /  20.8 °C 29.76 in /  1007.7 hPa SW 0.9 mph /  1.4 km/h 3.5 mph /  5.6 km/h 84 % 0.00 in /  0 mm
09:32 74.7 °F /  23.7 °C 69.5 °F /  20.8 °C 29.76 in /  1007.7 hPa West 2.2 mph /  3.5 km/h 3.5 mph /  5.6 km/h 84 % 0.00 in /  0 mm
09:37 75.0 °F /  23.9 °C 69.8 °F /  21 °C 29.76 in /  1007.7 hPa SSW 2.2 mph /  3.5 km/h 4.6 mph /  7.4 km/h 84 % 0.00 in /  0 mm
09:42 75.3 °F /  24.1 °C 69.8 °F /  21 °C 29.77 in /  1008 hPa WSW 0.7 mph /  1.1 km/h 4.6 mph /  7.4 km/h 83 % 0.00 in /  0 mm
09:47 75.8 °F /  24.3 °C 70.3 °F /  21.3 °C 29.77 in /  1008 hPa Calm   1.2 mph /  1.9 km/h 83 % 0.00 in /  0 mm
09:52 76.6 °F /  24.8 °C 70.0 °F /  21.1 °C 29.76 in /  1007.7 hPa SSW 0.5 mph /  0.8 km/h 3.5 mph /  5.6 km/h 80 % 0.00 in /  0 mm
09:57 77.3 °F /  25.2 °C 70.6 °F /  21.4 °C 29.76 in /  1007.7 hPa Calm   1.2 mph /  1.9 km/h 80 % 0.00 in /  0 mm
10:02 77.7 °F /  25.4 °C 70.3 °F /  21.3 °C 29.76 in /  1007.7 hPa ESE 0.3 mph /  0.5 km/h 2.3 mph /  3.7 km/h 78 % 0.00 in /  0 mm
10:07 78.1 °F /  25.6 °C 70.7 °F /  21.5 °C 29.76 in /  1007.7 hPa WSW 0.8 mph /  1.3 km/h 2.0 mph /  3.2 km/h 78 % 0.00 in /  0 mm
10:12 78.3 °F /  25.7 °C 70.5 °F /  21.4 °C 29.76 in /  1007.7 hPa SW 1.4 mph /  2.3 km/h 3.5 mph /  5.6 km/h 77 % 0.00 in /  0 mm
10:17 78.4 °F /  25.8 °C 70.6 °F /  21.4 °C 29.76 in /  1007.7 hPa SW 1.1 mph /  1.8 km/h 3.5 mph /  5.6 km/h 77 % 0.00 in /  0 mm
10:22 78.5 °F /  25.8 °C 70.3 °F /  21.3 °C 29.76 in /  1007.7 hPa SW 1.5 mph /  2.4 km/h 4.0 mph /  6.4 km/h 76 % 0.00 in /  0 mm
10:27 78.5 °F /  25.8 °C 69.9 °F /  21.1 °C 29.76 in /  1007.7 hPa SW 1.8 mph /  2.9 km/h 3.5 mph /  5.6 km/h 75 % 0.00 in /  0 mm
10:32 78.6 °F /  25.9 °C 70.4 °F /  21.3 °C 29.75 in /  1007.3 hPa WSW 3.8 mph /  6.1 km/h 4.6 mph /  7.4 km/h 76 % 0.00 in /  0 mm
10:37 78.7 °F /  25.9 °C 70.5 °F /  21.4 °C 29.75 in /  1007.3 hPa SE 0.5 mph /  0.8 km/h 5.8 mph /  9.3 km/h 76 % 0.00 in /  0 mm
10:43 78.8 °F /  26 °C 70.6 °F /  21.4 °C 29.75 in /  1007.3 hPa SSE 2.2 mph /  3.5 km/h 4.6 mph /  7.4 km/h 76 % 0.00 in /  0 mm
10:48 78.9 °F /  26.1 °C 70.7 °F /  21.5 °C 29.76 in /  1007.7 hPa East 1.0 mph /  1.6 km/h 3.5 mph /  5.6 km/h 76 % 0.00 in /  0 mm
10:53 79.1 °F /  26.2 °C 70.5 °F /  21.4 °C 29.75 in /  1007.3 hPa WSW 3.3 mph /  5.3 km/h 8.1 mph /  13 km/h 75 % 0.00 in /  0 mm
10:58 79.5 °F /  26.4 °C 70.9 °F /  21.6 °C 29.75 in /  1007.3 hPa SE 0.8 mph /  1.3 km/h 3.5 mph /  5.6 km/h 75 % 0.00 in /  0 mm
11:03 80.0 °F /  26.7 °C 71.0 °F /  21.7 °C 29.75 in /  1007.3 hPa WSW 3.5 mph /  5.6 km/h 5.8 mph /  9.3 km/h 74 % 0.00 in /  0 mm
11:08 80.6 °F /  27 °C 71.1 °F /  21.7 °C 29.75 in /  1007.3 hPa South 2.6 mph /  4.2 km/h 4.0 mph /  6.4 km/h 73 % 0.00 in /  0 mm
11:13 81.2 °F /  27.3 °C 71.3 °F /  21.8 °C 29.75 in /  1007.3 hPa South 1.0 mph /  1.6 km/h 3.5 mph /  5.6 km/h 72 % 0.00 in /  0 mm
11:18 81.9 °F /  27.7 °C 71.2 °F /  21.8 °C 29.75 in /  1007.3 hPa SSE 1.0 mph /  1.6 km/h 3.5 mph /  5.6 km/h 70 % 0.00 in /  0 mm
11:23 82.4 °F /  28 °C 71.2 °F /  21.8 °C 29.75 in /  1007.3 hPa SSW 0.3 mph /  0.5 km/h 2.3 mph /  3.7 km/h 69 % 0.00 in /  0 mm
11:28 82.9 °F /  28.3 °C 71.7 °F /  22.1 °C 29.75 in /  1007.3 hPa South 0.2 mph /  0.3 km/h 1.2 mph /  1.9 km/h 69 % 0.00 in /  0 mm
11:33 83.4 °F /  28.6 °C 71.7 °F /  22.1 °C 29.75 in /  1007.3 hPa SW 0.9 mph /  1.4 km/h 4.0 mph /  6.4 km/h 68 % 0.00 in /  0 mm
11:38 83.9 °F /  28.8 °C 72.6 °F /  22.6 °C 29.75 in /  1007.3 hPa South 2.3 mph /  3.7 km/h 5.8 mph /  9.3 km/h 69 % 0.00 in /  0 mm
11:43 84.4 °F /  29.1 °C 72.2 °F /  22.3 °C 29.75 in /  1007.3 hPa SE 1.2 mph /  1.9 km/h 4.6 mph /  7.4 km/h 67 % 0.00 in /  0 mm
11:48 85.0 °F /  29.4 °C 71.9 °F /  22.2 °C 29.75 in /  1007.3 hPa SE 1.0 mph /  1.6 km/h 3.5 mph /  5.6 km/h 65 % 0.00 in /  0 mm
11:53 85.0 °F /  29.4 °C 71.5 °F /  21.9 °C 29.75 in /  1007.3 hPa SSE 3.9 mph /  6.3 km/h 6.9 mph /  11.1 km/h 64 % 0.00 in /  0 mm
11:58 84.8 °F /  29.3 °C 71.3 °F /  21.8 °C 29.75 in /  1007.3 hPa SE 4.1 mph /  6.6 km/h 8.1 mph /  13 km/h 64 % 0.00 in /  0 mm
12:03 84.6 °F /  29.2 °C 72.0 °F /  22.2 °C 29.74 in /  1007 hPa SSW 1.7 mph /  2.7 km/h 5.8 mph /  9.3 km/h 66 % 0.00 in /  0 mm
12:08 84.9 °F /  29.4 °C 71.4 °F /  21.9 °C 29.74 in /  1007 hPa SE 1.6 mph /  2.6 km/h 6.9 mph /  11.1 km/h 64 % 0.00 in /  0 mm
12:13 84.8 °F /  29.3 °C 71.3 °F /  21.8 °C 29.74 in /  1007 hPa SSW 3.4 mph /  5.5 km/h 6.9 mph /  11.1 km/h 64 % 0.00 in /  0 mm
12:18 85.0 °F /  29.4 °C 73.7 °F /  23.2 °C 29.74 in /  1007 hPa SW 1.1 mph /  1.8 km/h 3.5 mph /  5.6 km/h 69 % 0.00 in /  0 mm
12:23 85.4 °F /  29.7 °C 72.3 °F /  22.4 °C 29.73 in /  1006.7 hPa South 0.7 mph /  1.1 km/h 4.6 mph /  7.4 km/h 65 % 0.00 in /  0 mm
12:28 85.8 °F /  29.9 °C 73.1 °F /  22.8 °C 29.73 in /  1006.7 hPa SSW 2.5 mph /  4 km/h 3.0 mph /  4.8 km/h 66 % 0.00 in /  0 mm
12:33 86.1 °F /  30.1 °C 72.5 °F /  22.5 °C 29.73 in /  1006.7 hPa SSE 1.1 mph /  1.8 km/h 5.0 mph /  8 km/h 64 % 0.00 in /  0 mm
12:38 85.6 °F /  29.8 °C 71.6 °F /  22 °C 29.73 in /  1006.7 hPa SE 0.9 mph /  1.4 km/h 3.5 mph /  5.6 km/h 63 % 0.00 in /  0 mm
12:43 85.2 °F /  29.6 °C 71.6 °F /  22 °C 29.73 in /  1006.7 hPa SE 4.8 mph /  7.7 km/h 11.0 mph /  17.7 km/h 64 % 0.00 in /  0 mm
12:44 85.2 °F /  29.6 °C 71.6 °F /  22 °C 29.73 in /  1006.7 hPa SSE 4.5 mph /  7.2 km/h 11.5 mph /  18.5 km/h 64 % 0.00 in /  0 mm
12:49 84.8 °F /  29.3 °C 72.2 °F /  22.3 °C 29.73 in /  1006.7 hPa SE 4.3 mph /  6.9 km/h 7.0 mph /  11.3 km/h 66 % 0.00 in /  0 mm
12:54 84.0 °F /  28.9 °C 71.4 °F /  21.9 °C 29.72 in /  1006.3 hPa SSE 3.7 mph /  6 km/h 8.1 mph /  13 km/h 66 % 0.00 in /  0 mm
12:59 84.0 °F /  28.9 °C 73.2 °F /  22.9 °C 29.72 in /  1006.3 hPa South 1.9 mph /  3.1 km/h 3.5 mph /  5.6 km/h 70 % 0.00 in /  0 mm
13:04 84.2 °F /  29 °C 71.6 °F /  22 °C 29.72 in /  1006.3 hPa South 2.0 mph /  3.2 km/h 5.8 mph /  9.3 km/h 66 % 0.00 in /  0 mm
13:09 83.9 °F /  28.8 °C 71.8 °F /  22.1 °C 29.72 in /  1006.3 hPa South 2.2 mph /  3.5 km/h 4.6 mph /  7.4 km/h 67 % 0.00 in /  0 mm
13:14 84.0 °F /  28.9 °C 72.7 °F /  22.6 °C 29.72 in /  1006.3 hPa SSW 1.8 mph /  2.9 km/h 3.5 mph /  5.6 km/h 69 % 0.00 in /  0 mm
13:19 84.3 °F /  29.1 °C 71.7 °F /  22.1 °C 29.72 in /  1006.3 hPa SSE 1.6 mph /  2.6 km/h 5.8 mph /  9.3 km/h 66 % 0.00 in /  0 mm
13:24 84.7 °F /  29.3 °C 72.5 °F /  22.5 °C 29.72 in /  1006.3 hPa South 1.1 mph /  1.8 km/h 3.5 mph /  5.6 km/h 67 % 0.00 in /  0 mm
13:29 85.0 °F /  29.4 °C 72.4 °F /  22.4 °C 29.72 in /  1006.3 hPa South 0.8 mph /  1.3 km/h 3.0 mph /  4.8 km/h 66 % 0.00 in /  0 mm
13:34 85.2 °F /  29.6 °C 73.4 °F /  23 °C 29.72 in /  1006.3 hPa SSW 1.0 mph /  1.6 km/h 3.5 mph /  5.6 km/h 68 % 0.00 in /  0 mm
13:40 85.0 °F /  29.4 °C 72.4 °F /  22.4 °C 29.72 in /  1006.3 hPa SSW 2.6 mph /  4.2 km/h 3.5 mph /  5.6 km/h 66 % 0.00 in /  0 mm
13:45 85.0 °F /  29.4 °C 71.9 °F /  22.2 °C 29.72 in /  1006.3 hPa SE 1.1 mph /  1.8 km/h 6.9 mph /  11.1 km/h 65 % 0.00 in /  0 mm
13:50 84.7 °F /  29.3 °C 71.6 °F /  22 °C 29.72 in /  1006.3 hPa SSW 1.1 mph /  1.8 km/h 5.8 mph /  9.3 km/h 65 % 0.00 in /  0 mm
13:55 84.5 °F /  29.2 °C 71.9 °F /  22.2 °C 29.71 in /  1006 hPa South 1.0 mph /  1.6 km/h 3.5 mph /  5.6 km/h 66 % 0.00 in /  0 mm
14:00 84.6 °F /  29.2 °C 72.4 °F /  22.4 °C 29.71 in /  1006 hPa ESE 1.2 mph /  1.9 km/h 4.0 mph /  6.4 km/h 67 % 0.00 in /  0 mm
14:05 84.7 °F /  29.3 °C 72.1 °F /  22.3 °C 29.71 in /  1006 hPa SSW 2.2 mph /  3.5 km/h 5.0 mph /  8 km/h 66 % 0.00 in /  0 mm
14:10 84.4 °F /  29.1 °C 71.8 °F /  22.1 °C 29.70 in /  1005.6 hPa South 3.1 mph /  5 km/h 8.1 mph /  13 km/h 66 % 0.00 in /  0 mm
14:15 84.3 °F /  29.1 °C 71.7 °F /  22.1 °C 29.70 in /  1005.6 hPa SE 2.8 mph /  4.5 km/h 6.9 mph /  11.1 km/h 66 % 0.00 in /  0 mm
14:20 84.2 °F /  29 °C 71.6 °F /  22 °C 29.70 in /  1005.6 hPa WSW 2.2 mph /  3.5 km/h 6.0 mph /  9.7 km/h 66 % 0.00 in /  0 mm
14:25 84.3 °F /  29.1 °C 72.1 °F /  22.3 °C 29.70 in /  1005.6 hPa SSE 0.9 mph /  1.4 km/h 3.5 mph /  5.6 km/h 67 % 0.00 in /  0 mm
14:30 84.4 °F /  29.1 °C 72.2 °F /  22.3 °C 29.70 in /  1005.6 hPa SE 1.7 mph /  2.7 km/h 6.9 mph /  11.1 km/h 67 % 0.00 in /  0 mm
14:35 84.5 °F /  29.2 °C 72.8 °F /  22.7 °C 29.69 in /  1005.3 hPa SSE 1.9 mph /  3.1 km/h 8.1 mph /  13 km/h 68 % 0.00 in /  0 mm
14:40 84.3 °F /  29.1 °C 71.7 °F /  22.1 °C 29.69 in /  1005.3 hPa SW 3.5 mph /  5.6 km/h 10.4 mph /  16.7 km/h 66 % 0.00 in /  0 mm
14:45 84.0 °F /  28.9 °C 71.9 °F /  22.2 °C 29.69 in /  1005.3 hPa SE 1.8 mph /  2.9 km/h 11.5 mph /  18.5 km/h 67 % 0.00 in /  0 mm
14:50 84.0 °F /  28.9 °C 72.7 °F /  22.6 °C 29.69 in /  1005.3 hPa SSW 1.6 mph /  2.6 km/h 5.8 mph /  9.3 km/h 69 % 0.00 in /  0 mm
14:55 84.3 °F /  29.1 °C 72.6 °F /  22.6 °C 29.68 in /  1005 hPa South 0.7 mph /  1.1 km/h 5.8 mph /  9.3 km/h 68 % 0.00 in /  0 mm
15:00 84.5 °F /  29.2 °C 72.8 °F /  22.7 °C 29.69 in /  1005.3 hPa SSW 2.6 mph /  4.2 km/h 5.8 mph /  9.3 km/h 68 % 0.00 in /  0 mm
15:05 84.8 °F /  29.3 °C 73.1 °F /  22.8 °C 29.69 in /  1005.3 hPa SSW 3.4 mph /  5.5 km/h 4.6 mph /  7.4 km/h 68 % 0.00 in /  0 mm
15:10 85.1 °F /  29.5 °C 73.3 °F /  22.9 °C 29.68 in /  1005 hPa SSE 3.8 mph /  6.1 km/h 5.0 mph /  8 km/h 68 % 0.00 in /  0 mm
15:15 85.3 °F /  29.6 °C 72.6 °F /  22.6 °C 29.69 in /  1005.3 hPa SW 2.3 mph /  3.7 km/h 4.6 mph /  7.4 km/h 66 % 0.00 in /  0 mm
15:20 85.4 °F /  29.7 °C 72.7 °F /  22.6 °C 29.69 in /  1005.3 hPa South 4.1 mph /  6.6 km/h 6.9 mph /  11.1 km/h 66 % 0.00 in /  0 mm
15:26 85.4 °F /  29.7 °C 72.3 °F /  22.4 °C 29.69 in /  1005.3 hPa SSE 3.5 mph /  5.6 km/h 9.2 mph /  14.8 km/h 65 % 0.00 in /  0 mm
15:31 85.2 °F /  29.6 °C 72.1 °F /  22.3 °C 29.69 in /  1005.3 hPa SSW 2.0 mph /  3.2 km/h 8.0 mph /  12.9 km/h 65 % 0.00 in /  0 mm
15:36 85.0 °F /  29.4 °C 71.9 °F /  22.2 °C 29.69 in /  1005.3 hPa South 2.0 mph /  3.2 km/h 8.0 mph /  12.9 km/h 65 % 0.00 in /  0 mm
15:41 84.7 °F /  29.3 °C 71.6 °F /  22 °C 29.69 in /  1005.3 hPa South 2.0 mph /  3.2 km/h 6.0 mph /  9.7 km/h 65 % 0.00 in /  0 mm
15:46 84.2 °F /  29 °C 71.6 °F /  22 °C 29.69 in /  1005.3 hPa South 1.0 mph /  1.6 km/h 7.0 mph /  11.3 km/h 66 % 0.00 in /  0 mm
15:51 84.1 °F /  28.9 °C 72.0 °F /  22.2 °C 29.69 in /  1005.3 hPa SSE 2.0 mph /  3.2 km/h 8.0 mph /  12.9 km/h 67 % 0.00 in /  0 mm
15:56 83.9 °F /  28.8 °C 71.3 °F /  21.8 °C 29.69 in /  1005.3 hPa SSE 2.0 mph /  3.2 km/h 5.0 mph /  8 km/h 66 % 0.00 in /  0 mm
16:01 83.4 °F /  28.6 °C 71.3 °F /  21.8 °C 29.69 in /  1005.3 hPa SSE 3.0 mph /  4.8 km/h 6.9 mph /  11.1 km/h 67 % 0.00 in /  0 mm
16:06 83.4 °F /  28.6 °C 71.3 °F /  21.8 °C 29.69 in /  1005.3 hPa South 3.1 mph /  5 km/h 4.0 mph /  6.4 km/h 67 % 0.00 in /  0 mm
16:11 83.3 °F /  28.5 °C 71.6 °F /  22 °C 29.69 in /  1005.3 hPa SSW 2.0 mph /  3.2 km/h 8.1 mph /  13 km/h 68 % 0.00 in /  0 mm
16:16 83.2 °F /  28.4 °C 71.5 °F /  21.9 °C 29.69 in /  1005.3 hPa SE 4.3 mph /  6.9 km/h 7.0 mph /  11.3 km/h 68 % 0.00 in /  0 mm
16:21 83.0 °F /  28.3 °C 70.9 °F /  21.6 °C 29.69 in /  1005.3 hPa SE 4.1 mph /  6.6 km/h 9.2 mph /  14.8 km/h 67 % 0.00 in /  0 mm
16:26 82.9 °F /  28.3 °C 71.3 °F /  21.8 °C 29.68 in /  1005 hPa SSW 1.9 mph /  3.1 km/h 3.5 mph /  5.6 km/h 68 % 0.00 in /  0 mm
16:31 83.0 °F /  28.3 °C 71.3 °F /  21.8 °C 29.68 in /  1005 hPa SE 1.6 mph /  2.6 km/h 5.8 mph /  9.3 km/h 68 % 0.00 in /  0 mm
16:36 82.9 °F /  28.3 °C 71.3 °F /  21.8 °C 29.68 in /  1005 hPa South 0.6 mph /  1 km/h 2.3 mph /  3.7 km/h 68 % 0.00 in /  0 mm
16:41 82.7 °F /  28.2 °C 71.5 °F /  21.9 °C 29.68 in /  1005 hPa SSE 1.0 mph /  1.6 km/h 3.0 mph /  4.8 km/h 69 % 0.00 in /  0 mm
16:46 82.4 °F /  28 °C 70.8 °F /  21.6 °C 29.68 in /  1005 hPa SSE 2.0 mph /  3.2 km/h 11.5 mph /  18.5 km/h 68 % 0.00 in /  0 mm
16:51 82.1 °F /  27.8 °C 70.9 °F /  21.6 °C 29.68 in /  1005 hPa SSW 2.9 mph /  4.7 km/h 6.9 mph /  11.1 km/h 69 % 0.00 in /  0 mm
16:56 82.1 °F /  27.8 °C 70.9 °F /  21.6 °C 29.68 in /  1005 hPa SSE 0.4 mph /  0.6 km/h 2.3 mph /  3.7 km/h 69 % 0.00 in /  0 mm
17:01 82.0 °F /  27.8 °C 71.2 °F /  21.8 °C 29.67 in /  1004.6 hPa South 2.4 mph /  3.9 km/h 8.1 mph /  13 km/h 70 % 0.00 in /  0 mm
17:06 81.8 °F /  27.7 °C 71.1 °F /  21.7 °C 29.67 in /  1004.6 hPa South 4.5 mph /  7.2 km/h 9.2 mph /  14.8 km/h 70 % 0.00 in /  0 mm
17:11 81.6 °F /  27.6 °C 70.9 °F /  21.6 °C 29.67 in /  1004.6 hPa West 1.9 mph /  3.1 km/h 3.5 mph /  5.6 km/h 70 % 0.00 in /  0 mm
17:16 81.4 °F /  27.4 °C 70.7 °F /  21.5 °C 29.67 in /  1004.6 hPa SSW 4.2 mph /  6.8 km/h 7.0 mph /  11.3 km/h 70 % 0.00 in /  0 mm
17:21 81.0 °F /  27.2 °C 70.3 °F /  21.3 °C 29.67 in /  1004.6 hPa SE 2.0 mph /  3.2 km/h 8.1 mph /  13 km/h 70 % 0.00 in /  0 mm
17:26 80.7 °F /  27.1 °C 70.4 °F /  21.3 °C 29.67 in /  1004.6 hPa South 3.6 mph /  5.8 km/h 8.1 mph /  13 km/h 71 % 0.00 in /  0 mm
17:32 80.5 °F /  26.9 °C 70.6 °F /  21.4 °C 29.67 in /  1004.6 hPa SSW 2.7 mph /  4.3 km/h 6.9 mph /  11.1 km/h 72 % 0.00 in /  0 mm
17:37 80.3 °F /  26.8 °C 70.4 °F /  21.3 °C 29.68 in /  1005 hPa SSW 4.3 mph /  6.9 km/h 9.2 mph /  14.8 km/h 72 % 0.00 in /  0 mm
17:42 80.0 °F /  26.7 °C 70.2 °F /  21.2 °C 29.68 in /  1005 hPa SSW 2.3 mph /  3.7 km/h 9.2 mph /  14.8 km/h 72 % 0.00 in /  0 mm
17:47 79.9 °F /  26.6 °C 70.5 °F /  21.4 °C 29.68 in /  1005 hPa SSE 0.8 mph /  1.3 km/h 4.6 mph /  7.4 km/h 73 % 0.00 in /  0 mm
17:52 79.6 °F /  26.4 °C 70.2 °F /  21.2 °C 29.69 in /  1005.3 hPa SSW 3.9 mph /  6.3 km/h 6.9 mph /  11.1 km/h 73 % 0.00 in /  0 mm
17:57 79.4 °F /  26.3 °C 70.0 °F /  21.1 °C 29.69 in /  1005.3 hPa SSE 2.6 mph /  4.2 km/h 9.2 mph /  14.8 km/h 73 % 0.00 in /  0 mm
18:02 79.2 °F /  26.2 °C 70.2 °F /  21.2 °C 29.69 in /  1005.3 hPa South 3.3 mph /  5.3 km/h 11.5 mph /  18.5 km/h 74 % 0.00 in /  0 mm
18:07 79.0 °F /  26.1 °C 70.4 °F /  21.3 °C 29.69 in /  1005.3 hPa SE 2.1 mph /  3.4 km/h 3.5 mph /  5.6 km/h 75 % 0.00 in /  0 mm
18:12 78.7 °F /  25.9 °C 70.1 °F /  21.2 °C 29.69 in /  1005.3 hPa South 2.9 mph /  4.7 km/h 5.0 mph /  8 km/h 75 % 0.00 in /  0 mm
18:17 78.4 °F /  25.8 °C 70.2 °F /  21.2 °C 29.70 in /  1005.6 hPa SSW 2.5 mph /  4 km/h 5.8 mph /  9.3 km/h 76 % 0.00 in /  0 mm
18:22 78.2 °F /  25.7 °C 70.4 °F /  21.3 °C 29.70 in /  1005.6 hPa SE 3.5 mph /  5.6 km/h 12.7 mph /  20.4 km/h 77 % 0.00 in /  0 mm
18:27 77.9 °F /  25.5 °C 70.1 °F /  21.2 °C 29.71 in /  1006 hPa SSW 2.5 mph /  4 km/h 5.0 mph /  8 km/h 77 % 0.00 in /  0 mm
18:32 77.6 °F /  25.3 °C 70.2 °F /  21.2 °C 29.71 in /  1006 hPa SE 2.0 mph /  3.2 km/h 4.6 mph /  7.4 km/h 78 % 0.00 in /  0 mm
18:37 77.3 °F /  25.2 °C 70.3 °F /  21.3 °C 29.71 in /  1006 hPa SSW 1.4 mph /  2.3 km/h 5.8 mph /  9.3 km/h 79 % 0.00 in /  0 mm
18:42 77.0 °F /  25 °C 70.4 °F /  21.3 °C 29.71 in /  1006 hPa SSW 1.5 mph /  2.4 km/h 3.5 mph /  5.6 km/h 80 % 0.00 in /  0 mm
18:47 76.8 °F /  24.9 °C 70.5 °F /  21.4 °C 29.71 in /  1006 hPa South 0.2 mph /  0.3 km/h 3.5 mph /  5.6 km/h 81 % 0.00 in /  0 mm
18:52 76.6 °F /  24.8 °C 70.7 °F /  21.5 °C 29.71 in /  1006 hPa SSE 3.2 mph /  5.1 km/h 4.6 mph /  7.4 km/h 82 % 0.00 in /  0 mm
18:57 76.4 °F /  24.7 °C 70.5 °F /  21.4 °C 29.71 in /  1006 hPa SSW 2.2 mph /  3.5 km/h 3.5 mph /  5.6 km/h 82 % 0.00 in /  0 mm
19:02 76.2 °F /  24.6 °C 70.7 °F /  21.5 °C 29.71 in /  1006 hPa ESE 2.1 mph /  3.4 km/h 3.5 mph /  5.6 km/h 83 % 0.00 in /  0 mm
19:07 75.9 °F /  24.4 °C 70.4 °F /  21.3 °C 29.71 in /  1006 hPa SSW 1.5 mph /  2.4 km/h 4.6 mph /  7.4 km/h 83 % 0.00 in /  0 mm
19:12 75.7 °F /  24.3 °C 70.5 °F /  21.4 °C 29.71 in /  1006 hPa SSE 2.4 mph /  3.9 km/h 10.4 mph /  16.7 km/h 84 % 0.00 in /  0 mm
19:17 75.5 °F /  24.2 °C 70.3 °F /  21.3 °C 29.70 in /  1005.6 hPa South 0.7 mph /  1.1 km/h 5.8 mph /  9.3 km/h 84 % 0.00 in /  0 mm
19:22 75.3 °F /  24.1 °C 70.1 °F /  21.2 °C 29.71 in /  1006 hPa South 1.8 mph /  2.9 km/h 6.9 mph /  11.1 km/h 84 % 0.00 in /  0 mm
19:27 75.2 °F /  24 °C 70.0 °F /  21.1 °C 29.71 in /  1006 hPa SE 3.1 mph /  5 km/h 5.0 mph /  8 km/h 84 % 0.00 in /  0 mm
19:32 75.1 °F /  23.9 °C 69.9 °F /  21.1 °C 29.71 in /  1006 hPa SSW 3.1 mph /  5 km/h 6.9 mph /  11.1 km/h 84 % 0.00 in /  0 mm
19:37 74.9 °F /  23.8 °C 70.1 °F /  21.2 °C 29.71 in /  1006 hPa SSE 0.4 mph /  0.6 km/h 4.6 mph /  7.4 km/h 85 % 0.00 in /  0 mm
19:42 74.9 °F /  23.8 °C 70.1 °F /  21.2 °C 29.72 in /  1006.3 hPa South 2.5 mph /  4 km/h 4.6 mph /  7.4 km/h 85 % 0.00 in /  0 mm
19:47 74.8 °F /  23.8 °C 70.0 °F /  21.1 °C 29.72 in /  1006.3 hPa SSE 1.9 mph /  3.1 km/h 4.6 mph /  7.4 km/h 85 % 0.00 in /  0 mm
19:52 74.8 °F /  23.8 °C 70.0 °F /  21.1 °C 29.73 in /  1006.7 hPa SW 2.5 mph /  4 km/h 4.6 mph /  7.4 km/h 85 % 0.00 in /  0 mm
19:57 74.8 °F /  23.8 °C 70.0 °F /  21.1 °C 29.73 in /  1006.7 hPa SSE 0.6 mph /  1 km/h 3.5 mph /  5.6 km/h 85 % 0.00 in /  0 mm
20:02 74.8 °F /  23.8 °C 70.0 °F /  21.1 °C 29.73 in /  1006.7 hPa South 1.0 mph /  1.6 km/h 3.5 mph /  5.6 km/h 85 % 0.00 in /  0 mm
20:07 74.8 °F /  23.8 °C 70.0 °F /  21.1 °C 29.73 in /  1006.7 hPa SSW 2.2 mph /  3.5 km/h 5.0 mph /  8 km/h 85 % 0.00 in /  0 mm
20:12 74.8 °F /  23.8 °C 70.0 °F /  21.1 °C 29.73 in /  1006.7 hPa ESE 2.1 mph /  3.4 km/h 9.2 mph /  14.8 km/h 85 % 0.00 in /  0 mm
20:17 74.8 °F /  23.8 °C 70.3 °F /  21.3 °C 29.73 in /  1006.7 hPa SSW 2.2 mph /  3.5 km/h 5.8 mph /  9.3 km/h 86 % 0.00 in /  0 mm
20:22 74.8 °F /  23.8 °C 70.3 °F /  21.3 °C 29.74 in /  1007 hPa SSW 1.7 mph /  2.7 km/h 3.5 mph /  5.6 km/h 86 % 0.00 in /  0 mm
20:25 74.8 °F /  23.8 °C 70.3 °F /  21.3 °C 29.74 in /  1007 hPa South 1.4 mph /  2.3 km/h 2.3 mph /  3.7 km/h 86 % 0.00 in /  0 mm
20:30 74.8 °F /  23.8 °C 70.3 °F /  21.3 °C 29.74 in /  1007 hPa SE 0.9 mph /  1.4 km/h 4.6 mph /  7.4 km/h 86 % 0.00 in /  0 mm
20:35 74.7 °F /  23.7 °C 70.6 °F /  21.4 °C 29.74 in /  1007 hPa SSW 2.1 mph /  3.4 km/h 3.5 mph /  5.6 km/h 87 % 0.00 in /  0 mm
20:41 74.7 °F /  23.7 °C 70.5 °F /  21.4 °C 29.74 in /  1007 hPa South 1.0 mph /  1.6 km/h 4.0 mph /  6.4 km/h 87 % 0.00 in /  0 mm
20:46 74.6 °F /  23.7 °C 70.5 °F /  21.4 °C 29.75 in /  1007.3 hPa SSW 1.1 mph /  1.8 km/h 3.5 mph /  5.6 km/h 87 % 0.00 in /  0 mm
20:51 74.6 °F /  23.7 °C 70.8 °F /  21.6 °C 29.76 in /  1007.7 hPa South 1.0 mph /  1.6 km/h 10.0 mph /  16.1 km/h 88 % 0.00 in /  0 mm
20:56 74.6 °F /  23.7 °C 70.8 °F /  21.6 °C 29.77 in /  1008 hPa SSW 7.0 mph /  11.3 km/h 18.0 mph /  29 km/h 88 % 0.00 in /  0 mm
21:01 74.6 °F /  23.7 °C 70.8 °F /  21.6 °C 29.77 in /  1008 hPa SSW 5.9 mph /  9.5 km/h 11.5 mph /  18.5 km/h 88 % 0.00 in /  0 mm
21:06 74.5 °F /  23.6 °C 70.0 °F /  21.1 °C 29.78 in /  1008.4 hPa WSW 6.9 mph /  11.1 km/h 12.7 mph /  20.4 km/h 86 % 0.00 in /  0 mm
21:11 74.4 °F /  23.6 °C 69.6 °F /  20.9 °C 29.78 in /  1008.4 hPa SSW 1.2 mph /  1.9 km/h 6.9 mph /  11.1 km/h 85 % 0.00 in /  0 mm
21:16 74.3 °F /  23.5 °C 69.1 °F /  20.6 °C 29.78 in /  1008.4 hPa West 0.3 mph /  0.5 km/h 4.6 mph /  7.4 km/h 84 % 0.00 in /  0 mm
21:21 74.2 °F /  23.4 °C 69.1 °F /  20.6 °C 29.78 in /  1008.4 hPa West 0.1 mph /  0.2 km/h   84 % 0.00 in /  0 mm
21:26 74.2 °F /  23.4 °C 69.1 °F /  20.6 °C 29.78 in /  1008.4 hPa Calm     84 % 0.00 in /  0 mm
21:31 74.0 °F /  23.3 °C 68.9 °F /  20.5 °C 29.77 in /  1008 hPa WNW 0.9 mph /  1.4 km/h 3.5 mph /  5.6 km/h 84 % 0.00 in /  0 mm
21:36 73.8 °F /  23.2 °C 68.7 °F /  20.4 °C 29.77 in /  1008 hPa Calm     84 % 0.00 in /  0 mm
21:41 73.6 °F /  23.1 °C 68.5 °F /  20.3 °C 29.77 in /  1008 hPa Calm     84 % 0.00 in /  0 mm
21:46 73.4 °F /  23 °C 68.6 °F /  20.3 °C 29.77 in /  1008 hPa Calm     85 % 0.00 in /  0 mm
21:51 73.2 °F /  22.9 °C 68.8 °F /  20.4 °C 29.77 in /  1008 hPa Calm     86 % 0.00 in /  0 mm
21:56 73.0 °F /  22.8 °C 68.6 °F /  20.3 °C 29.77 in /  1008 hPa Calm     86 % 0.00 in /  0 mm
22:01 72.7 °F /  22.6 °C 68.3 °F /  20.2 °C 29.78 in /  1008.4 hPa Calm     86 % 0.00 in /  0 mm
22:06 72.6 °F /  22.6 °C 68.2 °F /  20.1 °C 29.78 in /  1008.4 hPa Calm   1.2 mph /  1.9 km/h 86 % 0.00 in /  0 mm
22:11 72.4 °F /  22.4 °C 68.0 °F /  20 °C 29.78 in /  1008.4 hPa Calm     86 % 0.00 in /  0 mm
22:16 72.2 °F /  22.3 °C 67.8 °F /  19.9 °C 29.78 in /  1008.4 hPa Calm     86 % 0.00 in /  0 mm
22:21 72.0 °F /  22.2 °C 67.6 °F /  19.8 °C 29.78 in /  1008.4 hPa Calm     86 % 0.00 in /  0 mm
22:26 71.8 °F /  22.1 °C 67.4 °F /  19.7 °C 29.78 in /  1008.4 hPa Calm     86 % 0.00 in /  0 mm
22:31 71.6 °F /  22 °C 67.5 °F /  19.7 °C 29.78 in /  1008.4 hPa Calm     87 % 0.00 in /  0 mm
22:36 71.5 °F /  21.9 °C 67.4 °F /  19.7 °C 29.77 in /  1008 hPa Calm     87 % 0.00 in /  0 mm
22:41 71.3 °F /  21.8 °C 67.6 °F /  19.8 °C 29.78 in /  1008.4 hPa WNW 0.1 mph /  0.2 km/h 1.2 mph /  1.9 km/h 88 % 0.00 in /  0 mm
22:46 71.1 °F /  21.7 °C 67.4 °F /  19.7 °C 29.77 in /  1008 hPa Calm     88 % 0.00 in /  0 mm
22:51 71.0 °F /  21.7 °C 67.3 °F /  19.6 °C 29.78 in /  1008.4 hPa Calm     88 % 0.00 in /  0 mm
22:56 70.8 °F /  21.6 °C 67.1 °F /  19.5 °C 29.78 in /  1008.4 hPa Calm     88 % 0.00 in /  0 mm
23:01 70.7 °F /  21.5 °C 67.0 °F /  19.4 °C 29.78 in /  1008.4 hPa Calm     88 % 0.00 in /  0 mm
23:06 70.6 °F /  21.4 °C 67.2 °F /  19.6 °C 29.78 in /  1008.4 hPa Calm     89 % 0.00 in /  0 mm
23:12 70.5 °F /  21.4 °C 67.1 °F /  19.5 °C 29.78 in /  1008.4 hPa Calm     89 % 0.00 in /  0 mm
23:17 70.4 °F /  21.3 °C 67.0 °F /  19.4 °C 29.78 in /  1008.4 hPa WNW 0.2 mph /  0.3 km/h 1.2 mph /  1.9 km/h 89 % 0.00 in /  0 mm
23:21 70.3 °F /  21.3 °C 66.9 °F /  19.4 °C 29.78 in /  1008.4 hPa Calm   2.3 mph /  3.7 km/h 89 % 0.00 in /  0 mm
23:27 70.2 °F /  21.2 °C 67.1 °F /  19.5 °C 29.78 in /  1008.4 hPa Calm     90 % 0.00 in /  0 mm
23:32 70.2 °F /  21.2 °C 67.1 °F /  19.5 °C 29.78 in /  1008.4 hPa Calm     90 % 0.00 in /  0 mm
23:37 70.2 °F /  21.2 °C 67.1 °F /  19.5 °C 29.77 in /  1008 hPa Calm     90 % 0.00 in /  0 mm
23:42 70.1 °F /  21.2 °C 67.3 °F /  19.6 °C 29.78 in /  1008.4 hPa Calm     91 % 0.00 in /  0 mm
23:47 70.1 °F /  21.2 °C 67.3 °F /  19.6 °C 29.77 in /  1008 hPa WNW 0.4 mph /  0.6 km/h 1.2 mph /  1.9 km/h 91 % 0.00 in /  0 mm
23:52 70.1 °F /  21.2 °C 67.3 °F /  19.6 °C 29.77 in /  1008 hPa Calm     91 % 0.00 in /  0 mm
23:57 70.0 °F /  21.1 °C 67.3 °F /  19.6 °C 29.77 in /  1008 hPa Calm     91 % 0.00 in /  0 mm
Crab Meadow Weather
Compliments of Weather Underground - 3 mb

Script developed by  Jim McMurry - jmcmurry@mwt.net Adapted for the template by  Wim van der Kuil - Leuven-Template.eu

Weather Terms: Heat Advisory - Maximum heat index of 105 to 110°F with a minimum of 75°F for two or more consecutive days.